sensor_id;sensor_type;location;lat;lon;timestamp;pressure;altitude;pressure_sealevel;temperature
68012;BMP180;54794;48.348;7.878;2022-07-17T00:00:24;99835.00;;;24.10
68012;BMP180;54794;48.348;7.878;2022-07-17T00:02:52;99832.00;;;24.10
68012;BMP180;54794;48.348;7.878;2022-07-17T00:05:19;99821.00;;;24.10
68012;BMP180;54794;48.348;7.878;2022-07-17T00:07:46;99827.00;;;24.10
68012;BMP180;54794;48.348;7.878;2022-07-17T00:10:17;99822.00;;;24.10
68012;BMP180;54794;48.348;7.878;2022-07-17T00:12:44;99812.00;;;24.10
68012;BMP180;54794;48.348;7.878;2022-07-17T00:15:11;99835.00;;;24.00
68012;BMP180;54794;48.348;7.878;2022-07-17T00:17:39;99829.00;;;24.10
68012;BMP180;54794;48.348;7.878;2022-07-17T00:20:08;99831.00;;;24.10
68012;BMP180;54794;48.348;7.878;2022-07-17T00:22:35;99826.00;;;24.10
68012;BMP180;54794;48.348;7.878;2022-07-17T00:25:04;99834.00;;;24.00
68012;BMP180;54794;48.348;7.878;2022-07-17T00:27:32;99825.00;;;24.00
68012;BMP180;54794;48.348;7.878;2022-07-17T00:29:59;99837.00;;;23.90
68012;BMP180;54794;48.348;7.878;2022-07-17T00:32:27;99835.00;;;23.90
68012;BMP180;54794;48.348;7.878;2022-07-17T00:34:54;99835.00;;;23.90
68012;BMP180;54794;48.348;7.878;2022-07-17T00:37:21;99831.00;;;23.80
68012;BMP180;54794;48.348;7.878;2022-07-17T00:39:49;99836.00;;;23.80
68012;BMP180;54794;48.348;7.878;2022-07-17T00:42:17;99837.00;;;23.70
68012;BMP180;54794;48.348;7.878;2022-07-17T00:44:45;99830.00;;;23.70
68012;BMP180;54794;48.348;7.878;2022-07-17T00:47:19;99823.00;;;23.60
68012;BMP180;54794;48.348;7.878;2022-07-17T00:49:47;99812.00;;;23.60
68012;BMP180;54794;48.348;7.878;2022-07-17T00:52:15;99826.00;;;23.50
68012;BMP180;54794;48.348;7.878;2022-07-17T00:54:45;99824.00;;;23.50
68012;BMP180;54794;48.348;7.878;2022-07-17T00:57:15;99817.00;;;23.40
68012;BMP180;54794;48.348;7.878;2022-07-17T00:59:42;99824.00;;;23.40
68012;BMP180;54794;48.348;7.878;2022-07-17T01:02:12;99807.00;;;23.20
68012;BMP180;54794;48.348;7.878;2022-07-17T01:04:41;99829.00;;;23.20
68012;BMP180;54794;48.348;7.878;2022-07-17T01:07:08;99820.00;;;23.20
68012;BMP180;54794;48.348;7.878;2022-07-17T01:09:36;99820.00;;;23.10
68012;BMP180;54794;48.348;7.878;2022-07-17T01:12:04;99811.00;;;23.00
68012;BMP180;54794;48.348;7.878;2022-07-17T01:14:32;99808.00;;;23.00
68012;BMP180;54794;48.348;7.878;2022-07-17T01:17:00;99810.00;;;23.00
68012;BMP180;54794;48.348;7.878;2022-07-17T01:19:27;99820.00;;;23.00
68012;BMP180;54794;48.348;7.878;2022-07-17T01:21:54;99806.00;;;22.90
68012;BMP180;54794;48.348;7.878;2022-07-17T01:24:21;99820.00;;;22.90
68012;BMP180;54794;48.348;7.878;2022-07-17T01:26:49;99817.00;;;22.90
68012;BMP180;54794;48.348;7.878;2022-07-17T01:29:16;99825.00;;;22.80
68012;BMP180;54794;48.348;7.878;2022-07-17T01:31:44;99818.00;;;22.90
68012;BMP180;54794;48.348;7.878;2022-07-17T01:34:12;99821.00;;;22.90
68012;BMP180;54794;48.348;7.878;2022-07-17T01:36:40;99826.00;;;22.90
68012;BMP180;54794;48.348;7.878;2022-07-17T01:39:09;99825.00;;;22.90
68012;BMP180;54794;48.348;7.878;2022-07-17T01:41:36;99830.00;;;22.80
68012;BMP180;54794;48.348;7.878;2022-07-17T01:44:03;99813.00;;;22.90
68012;BMP180;54794;48.348;7.878;2022-07-17T01:46:31;99821.00;;;22.90
68012;BMP180;54794;48.348;7.878;2022-07-17T01:48:59;99829.00;;;22.90
68012;BMP180;54794;48.348;7.878;2022-07-17T01:51:29;99830.00;;;22.90
68012;BMP180;54794;48.348;7.878;2022-07-17T01:53:58;99831.00;;;23.00
68012;BMP180;54794;48.348;7.878;2022-07-17T01:56:25;99813.00;;;23.00
68012;BMP180;54794;48.348;7.878;2022-07-17T01:58:52;99820.00;;;23.00
68012;BMP180;54794;48.348;7.878;2022-07-17T02:01:19;99828.00;;;23.00
68012;BMP180;54794;48.348;7.878;2022-07-17T02:03:46;99813.00;;;22.90
68012;BMP180;54794;48.348;7.878;2022-07-17T02:06:13;99811.00;;;22.90
68012;BMP180;54794;48.348;7.878;2022-07-17T02:08:40;99828.00;;;22.90
68012;BMP180;54794;48.348;7.878;2022-07-17T02:11:08;99817.00;;;22.80
68012;BMP180;54794;48.348;7.878;2022-07-17T02:13:34;99824.00;;;22.80
68012;BMP180;54794;48.348;7.878;2022-07-17T02:16:02;99822.00;;;22.70
68012;BMP180;54794;48.348;7.878;2022-07-17T02:18:29;99819.00;;;22.60
68012;BMP180;54794;48.348;7.878;2022-07-17T02:20:56;99822.00;;;22.60
68012;BMP180;54794;48.348;7.878;2022-07-17T02:23:23;99824.00;;;22.60
68012;BMP180;54794;48.348;7.878;2022-07-17T02:25:50;99827.00;;;22.50
68012;BMP180;54794;48.348;7.878;2022-07-17T02:28:17;99821.00;;;22.50
68012;BMP180;54794;48.348;7.878;2022-07-17T02:30:44;99803.00;;;22.50
68012;BMP180;54794;48.348;7.878;2022-07-17T02:33:11;99812.00;;;22.40
68012;BMP180;54794;48.348;7.878;2022-07-17T02:35:38;99811.00;;;22.40
68012;BMP180;54794;48.348;7.878;2022-07-17T02:38:05;99799.00;;;22.40
68012;BMP180;54794;48.348;7.878;2022-07-17T02:40:32;99803.00;;;22.40
68012;BMP180;54794;48.348;7.878;2022-07-17T02:42:59;99797.00;;;22.30
68012;BMP180;54794;48.348;7.878;2022-07-17T02:45:27;99790.00;;;22.20
68012;BMP180;54794;48.348;7.878;2022-07-17T02:47:54;99802.00;;;22.20
68012;BMP180;54794;48.348;7.878;2022-07-17T02:50:21;99792.00;;;22.20
68012;BMP180;54794;48.348;7.878;2022-07-17T02:52:48;99804.00;;;22.20
68012;BMP180;54794;48.348;7.878;2022-07-17T02:55:17;99796.00;;;22.20
68012;BMP180;54794;48.348;7.878;2022-07-17T02:57:45;99789.00;;;22.10
68012;BMP180;54794;48.348;7.878;2022-07-17T03:00:17;99790.00;;;22.10
68012;BMP180;54794;48.348;7.878;2022-07-17T03:02:45;99793.00;;;22.10
68012;BMP180;54794;48.348;7.878;2022-07-17T03:05:13;99789.00;;;22.00
68012;BMP180;54794;48.348;7.878;2022-07-17T03:07:42;99794.00;;;22.00
68012;BMP180;54794;48.348;7.878;2022-07-17T03:10:11;99800.00;;;22.00
68012;BMP180;54794;48.348;7.878;2022-07-17T03:12:38;99797.00;;;22.00
68012;BMP180;54794;48.348;7.878;2022-07-17T03:15:06;99795.00;;;22.00
68012;BMP180;54794;48.348;7.878;2022-07-17T03:17:34;99784.00;;;22.00
68012;BMP180;54794;48.348;7.878;2022-07-17T03:20:02;99801.00;;;22.00
68012;BMP180;54794;48.348;7.878;2022-07-17T03:22:30;99793.00;;;22.00
68012;BMP180;54794;48.348;7.878;2022-07-17T03:24:56;99801.00;;;22.00
68012;BMP180;54794;48.348;7.878;2022-07-17T03:27:23;99808.00;;;22.00
68012;BMP180;54794;48.348;7.878;2022-07-17T03:29:50;99801.00;;;22.10
68012;BMP180;54794;48.348;7.878;2022-07-17T03:32:18;99798.00;;;22.10
68012;BMP180;54794;48.348;7.878;2022-07-17T03:34:45;99797.00;;;22.10
68012;BMP180;54794;48.348;7.878;2022-07-17T03:37:12;99801.00;;;22.10
68012;BMP180;54794;48.348;7.878;2022-07-17T03:39:39;99800.00;;;22.10
68012;BMP180;54794;48.348;7.878;2022-07-17T03:42:06;99788.00;;;22.20
68012;BMP180;54794;48.348;7.878;2022-07-17T03:44:33;99801.00;;;22.20
68012;BMP180;54794;48.348;7.878;2022-07-17T03:47:00;99801.00;;;22.20
68012;BMP180;54794;48.348;7.878;2022-07-17T03:49:27;99788.00;;;22.20
68012;BMP180;54794;48.348;7.878;2022-07-17T03:51:54;99808.00;;;22.20
68012;BMP180;54794;48.348;7.878;2022-07-17T03:54:21;99793.00;;;22.20
68012;BMP180;54794;48.348;7.878;2022-07-17T03:56:48;99799.00;;;22.20
68012;BMP180;54794;48.348;7.878;2022-07-17T03:59:16;99798.00;;;22.30
68012;BMP180;54794;48.348;7.878;2022-07-17T04:01:43;99798.00;;;22.30
68012;BMP180;54794;48.348;7.878;2022-07-17T04:04:10;99789.00;;;22.30
68012;BMP180;54794;48.348;7.878;2022-07-17T04:06:37;99803.00;;;22.30
68012;BMP180;54794;48.348;7.878;2022-07-17T04:09:04;99802.00;;;22.30
68012;BMP180;54794;48.348;7.878;2022-07-17T04:11:31;99805.00;;;22.30
68012;BMP180;54794;48.348;7.878;2022-07-17T04:13:58;99812.00;;;22.30
68012;BMP180;54794;48.348;7.878;2022-07-17T04:16:25;99793.00;;;22.30
68012;BMP180;54794;48.348;7.878;2022-07-17T04:18:52;99805.00;;;22.30
68012;BMP180;54794;48.348;7.878;2022-07-17T04:21:20;99796.00;;;22.30
68012;BMP180;54794;48.348;7.878;2022-07-17T04:23:47;99798.00;;;22.30
68012;BMP180;54794;48.348;7.878;2022-07-17T04:26:14;99795.00;;;22.30
68012;BMP180;54794;48.348;7.878;2022-07-17T04:28:41;99800.00;;;22.20
68012;BMP180;54794;48.348;7.878;2022-07-17T04:31:08;99802.00;;;22.20
68012;BMP180;54794;48.348;7.878;2022-07-17T04:33:35;99811.00;;;22.20
68012;BMP180;54794;48.348;7.878;2022-07-17T04:36:03;99818.00;;;22.10
68012;BMP180;54794;48.348;7.878;2022-07-17T04:38:30;99811.00;;;22.10
68012;BMP180;54794;48.348;7.878;2022-07-17T04:40:57;99820.00;;;22.10
68012;BMP180;54794;48.348;7.878;2022-07-17T04:43:24;99807.00;;;22.10
68012;BMP180;54794;48.348;7.878;2022-07-17T04:45:52;99826.00;;;22.10
68012;BMP180;54794;48.348;7.878;2022-07-17T04:48:19;99825.00;;;22.10
68012;BMP180;54794;48.348;7.878;2022-07-17T04:50:45;99824.00;;;22.10
68012;BMP180;54794;48.348;7.878;2022-07-17T04:53:12;99821.00;;;22.20
68012;BMP180;54794;48.348;7.878;2022-07-17T04:55:39;99825.00;;;22.20
68012;BMP180;54794;48.348;7.878;2022-07-17T04:58:06;99829.00;;;22.20
68012;BMP180;54794;48.348;7.878;2022-07-17T05:00:33;99835.00;;;22.20
68012;BMP180;54794;48.348;7.878;2022-07-17T05:03:00;99825.00;;;22.20
68012;BMP180;54794;48.348;7.878;2022-07-17T05:05:27;99827.00;;;22.20
68012;BMP180;54794;48.348;7.878;2022-07-17T05:07:54;99842.00;;;22.30
68012;BMP180;54794;48.348;7.878;2022-07-17T05:10:21;99822.00;;;22.30
68012;BMP180;54794;48.348;7.878;2022-07-17T05:12:54;99847.00;;;22.40
68012;BMP180;54794;48.348;7.878;2022-07-17T05:15:21;99845.00;;;22.40
68012;BMP180;54794;48.348;7.878;2022-07-17T05:17:48;99843.00;;;22.40
68012;BMP180;54794;48.348;7.878;2022-07-17T05:20:15;99846.00;;;22.50
68012;BMP180;54794;48.348;7.878;2022-07-17T05:22:42;99845.00;;;22.50
68012;BMP180;54794;48.348;7.878;2022-07-17T05:25:09;99831.00;;;22.60
68012;BMP180;54794;48.348;7.878;2022-07-17T05:27:36;99850.00;;;22.60
68012;BMP180;54794;48.348;7.878;2022-07-17T05:30:04;99846.00;;;22.60
68012;BMP180;54794;48.348;7.878;2022-07-17T05:32:31;99840.00;;;22.70
68012;BMP180;54794;48.348;7.878;2022-07-17T05:34:58;99854.00;;;22.70
68012;BMP180;54794;48.348;7.878;2022-07-17T05:37:25;99858.00;;;22.70
68012;BMP180;54794;48.348;7.878;2022-07-17T05:39:51;99848.00;;;22.70
68012;BMP180;54794;48.348;7.878;2022-07-17T05:42:18;99859.00;;;22.80
68012;BMP180;54794;48.348;7.878;2022-07-17T05:44:45;99839.00;;;22.80
68012;BMP180;54794;48.348;7.878;2022-07-17T05:47:12;99864.00;;;22.80
68012;BMP180;54794;48.348;7.878;2022-07-17T05:49:39;99852.00;;;22.90
68012;BMP180;54794;48.348;7.878;2022-07-17T05:52:06;99848.00;;;22.90
68012;BMP180;54794;48.348;7.878;2022-07-17T05:54:33;99860.00;;;22.90
68012;BMP180;54794;48.348;7.878;2022-07-17T05:57:01;99857.00;;;22.90
68012;BMP180;54794;48.348;7.878;2022-07-17T05:59:36;99848.00;;;23.00
68012;BMP180;54794;48.348;7.878;2022-07-17T06:02:04;99863.00;;;23.00
68012;BMP180;54794;48.348;7.878;2022-07-17T06:04:31;99844.00;;;23.10
68012;BMP180;54794;48.348;7.878;2022-07-17T06:06:59;99842.00;;;23.10
68012;BMP180;54794;48.348;7.878;2022-07-17T06:09:26;99837.00;;;23.10
68012;BMP180;54794;48.348;7.878;2022-07-17T06:11:52;99845.00;;;23.20
68012;BMP180;54794;48.348;7.878;2022-07-17T06:14:19;99848.00;;;23.20
68012;BMP180;54794;48.348;7.878;2022-07-17T06:16:46;99842.00;;;23.20
68012;BMP180;54794;48.348;7.878;2022-07-17T06:19:13;99850.00;;;23.30
68012;BMP180;54794;48.348;7.878;2022-07-17T06:21:40;99854.00;;;23.30
68012;BMP180;54794;48.348;7.878;2022-07-17T06:24:07;99854.00;;;23.40
68012;BMP180;54794;48.348;7.878;2022-07-17T06:26:34;99855.00;;;23.40
68012;BMP180;54794;48.348;7.878;2022-07-17T06:29:01;99849.00;;;23.40
68012;BMP180;54794;48.348;7.878;2022-07-17T06:31:28;99859.00;;;23.50
68012;BMP180;54794;48.348;7.878;2022-07-17T06:33:55;99857.00;;;23.50
68012;BMP180;54794;48.348;7.878;2022-07-17T06:36:22;99862.00;;;23.60
68012;BMP180;54794;48.348;7.878;2022-07-17T06:38:49;99852.00;;;23.60
68012;BMP180;54794;48.348;7.878;2022-07-17T06:41:16;99872.00;;;23.70
68012;BMP180;54794;48.348;7.878;2022-07-17T06:43:43;99874.00;;;23.70
68012;BMP180;54794;48.348;7.878;2022-07-17T06:46:09;99863.00;;;23.80
68012;BMP180;54794;48.348;7.878;2022-07-17T06:48:36;99869.00;;;23.90
68012;BMP180;54794;48.348;7.878;2022-07-17T06:51:03;99865.00;;;23.90
68012;BMP180;54794;48.348;7.878;2022-07-17T06:53:30;99870.00;;;24.00
68012;BMP180;54794;48.348;7.878;2022-07-17T06:55:57;99866.00;;;24.00
68012;BMP180;54794;48.348;7.878;2022-07-17T06:58:24;99871.00;;;24.10
68012;BMP180;54794;48.348;7.878;2022-07-17T07:00:51;99875.00;;;24.20
68012;BMP180;54794;48.348;7.878;2022-07-17T07:03:18;99878.00;;;24.20
68012;BMP180;54794;48.348;7.878;2022-07-17T07:05:45;99875.00;;;24.30
68012;BMP180;54794;48.348;7.878;2022-07-17T07:08:12;99864.00;;;24.40
68012;BMP180;54794;48.348;7.878;2022-07-17T07:10:39;99875.00;;;24.50
68012;BMP180;54794;48.348;7.878;2022-07-17T07:13:06;99863.00;;;24.50
68012;BMP180;54794;48.348;7.878;2022-07-17T07:15:33;99866.00;;;24.60
68012;BMP180;54794;48.348;7.878;2022-07-17T07:18:00;99872.00;;;24.70
68012;BMP180;54794;48.348;7.878;2022-07-17T07:20:27;99864.00;;;24.70
68012;BMP180;54794;48.348;7.878;2022-07-17T07:22:54;99883.00;;;24.90
68012;BMP180;54794;48.348;7.878;2022-07-17T07:25:23;99878.00;;;25.00
68012;BMP180;54794;48.348;7.878;2022-07-17T07:27:50;99877.00;;;25.10
68012;BMP180;54794;48.348;7.878;2022-07-17T07:30:17;99878.00;;;25.20
68012;BMP180;54794;48.348;7.878;2022-07-17T07:32:44;99880.00;;;25.30
68012;BMP180;54794;48.348;7.878;2022-07-17T07:35:11;99886.00;;;25.30
68012;BMP180;54794;48.348;7.878;2022-07-17T07:37:39;99880.00;;;25.50
68012;BMP180;54794;48.348;7.878;2022-07-17T07:40:06;99882.00;;;25.60
68012;BMP180;54794;48.348;7.878;2022-07-17T07:42:34;99884.00;;;25.60
68012;BMP180;54794;48.348;7.878;2022-07-17T07:45:01;99877.00;;;25.70
68012;BMP180;54794;48.348;7.878;2022-07-17T07:47:28;99884.00;;;25.80
68012;BMP180;54794;48.348;7.878;2022-07-17T07:49:55;99883.00;;;25.90
68012;BMP180;54794;48.348;7.878;2022-07-17T07:52:21;99876.00;;;26.00
68012;BMP180;54794;48.348;7.878;2022-07-17T07:54:49;99885.00;;;26.10
68012;BMP180;54794;48.348;7.878;2022-07-17T07:57:16;99890.00;;;26.20
68012;BMP180;54794;48.348;7.878;2022-07-17T07:59:43;99885.00;;;26.30
68012;BMP180;54794;48.348;7.878;2022-07-17T08:02:10;99888.00;;;26.40
68012;BMP180;54794;48.348;7.878;2022-07-17T08:04:38;99904.00;;;26.50
68012;BMP180;54794;48.348;7.878;2022-07-17T08:07:05;99895.00;;;26.60
68012;BMP180;54794;48.348;7.878;2022-07-17T08:09:32;99894.00;;;26.70
68012;BMP180;54794;48.348;7.878;2022-07-17T08:11:58;99882.00;;;26.80
68012;BMP180;54794;48.348;7.878;2022-07-17T08:14:35;99901.00;;;26.90
68012;BMP180;54794;48.348;7.878;2022-07-17T08:17:02;99885.00;;;27.00
68012;BMP180;54794;48.348;7.878;2022-07-17T08:19:29;99892.00;;;27.10
68012;BMP180;54794;48.348;7.878;2022-07-17T08:21:56;99889.00;;;27.20
68012;BMP180;54794;48.348;7.878;2022-07-17T08:24:23;99891.00;;;27.20
68012;BMP180;54794;48.348;7.878;2022-07-17T08:26:50;99888.00;;;27.40
68012;BMP180;54794;48.348;7.878;2022-07-17T08:29:18;99887.00;;;27.50
68012;BMP180;54794;48.348;7.878;2022-07-17T08:32:05;99886.00;;;27.60
68012;BMP180;54794;48.348;7.878;2022-07-17T08:34:32;99888.00;;;27.70
68012;BMP180;54794;48.348;7.878;2022-07-17T08:36:59;99889.00;;;27.80
68012;BMP180;54794;48.348;7.878;2022-07-17T08:39:27;99884.00;;;27.90
68012;BMP180;54794;48.348;7.878;2022-07-17T08:41:54;99887.00;;;28.00
68012;BMP180;54794;48.348;7.878;2022-07-17T08:44:21;99885.00;;;28.10
68012;BMP180;54794;48.348;7.878;2022-07-17T08:46:48;99886.00;;;28.30
68012;BMP180;54794;48.348;7.878;2022-07-17T08:49:21;99887.00;;;28.40
68012;BMP180;54794;48.348;7.878;2022-07-17T08:51:48;99882.00;;;28.50
68012;BMP180;54794;48.348;7.878;2022-07-17T08:54:15;99885.00;;;28.60
68012;BMP180;54794;48.348;7.878;2022-07-17T08:56:43;99893.00;;;28.70
68012;BMP180;54794;48.348;7.878;2022-07-17T08:59:10;99888.00;;;28.80
68012;BMP180;54794;48.348;7.878;2022-07-17T09:01:37;99874.00;;;28.90
68012;BMP180;54794;48.348;7.878;2022-07-17T09:04:05;99884.00;;;28.90
68012;BMP180;54794;48.348;7.878;2022-07-17T09:20:46;99878.00;;;29.50
68012;BMP180;54794;48.348;7.878;2022-07-17T09:24:40;99825.00;;;29.70
68012;BMP180;54794;48.348;7.878;2022-07-17T09:28:11;99841.00;;;29.90
68012;BMP180;54794;48.348;7.878;2022-07-17T09:31:41;99803.00;;;30.00
68012;BMP180;54794;48.348;7.878;2022-07-17T09:34:46;99882.00;;;30.10
68012;BMP180;54794;48.348;7.878;2022-07-17T09:38:27;99879.00;;;30.30
68012;BMP180;54794;48.348;7.878;2022-07-17T09:42:30;99874.00;;;30.50
68012;BMP180;54794;48.348;7.878;2022-07-17T09:49:03;99810.00;;;30.50
68012;BMP180;54794;48.348;7.878;2022-07-17T09:52:13;99832.00;;;30.90
68012;BMP180;54794;48.348;7.878;2022-07-17T10:15:25;99877.00;;;32.00
68012;BMP180;54794;48.348;7.878;2022-07-17T10:19:26;99812.00;;;32.10
68012;BMP180;54794;48.348;7.878;2022-07-17T10:26:12;99858.00;;;32.40
68012;BMP180;54794;48.348;7.878;2022-07-17T10:29:38;99871.00;;;32.50
68012;BMP180;54794;48.348;7.878;2022-07-17T10:33:15;99836.00;;;32.60
68012;BMP180;54794;48.348;7.878;2022-07-17T10:42:41;99826.00;;;32.90
68012;BMP180;54794;48.348;7.878;2022-07-17T10:45:56;99840.00;;;33.00
68012;BMP180;54794;48.348;7.878;2022-07-17T10:48:32;99824.00;;;33.20
68012;BMP180;54794;48.348;7.878;2022-07-17T11:01:25;99854.00;;;33.50
68012;BMP180;54794;48.348;7.878;2022-07-17T11:03:55;99870.00;;;33.60
68012;BMP180;54794;48.348;7.878;2022-07-17T11:09:00;99858.00;;;33.80
68012;BMP180;54794;48.348;7.878;2022-07-17T11:11:40;99869.00;;;33.90
68012;BMP180;54794;48.348;7.878;2022-07-17T11:14:20;99867.00;;;34.00
68012;BMP180;54794;48.348;7.878;2022-07-17T11:19:28;99861.00;;;34.20
68012;BMP180;54794;48.348;7.878;2022-07-17T11:22:03;99862.00;;;34.30
68012;BMP180;54794;48.348;7.878;2022-07-17T11:27:10;99859.00;;;34.40
68012;BMP180;54794;48.348;7.878;2022-07-17T11:29:39;99854.00;;;34.50
68012;BMP180;54794;48.348;7.878;2022-07-17T11:32:07;99844.00;;;34.60
68012;BMP180;54794;48.348;7.878;2022-07-17T11:34:34;99852.00;;;34.70
68012;BMP180;54794;48.348;7.878;2022-07-17T11:37:06;99863.00;;;34.70
68012;BMP180;54794;48.348;7.878;2022-07-17T11:43:26;99804.00;;;34.90
68012;BMP180;54794;48.348;7.878;2022-07-17T11:46:17;99799.00;;;35.00
68012;BMP180;54794;48.348;7.878;2022-07-17T11:53:38;99847.00;;;35.10
68012;BMP180;54794;48.348;7.878;2022-07-17T11:56:28;99778.00;;;35.20
68012;BMP180;54794;48.348;7.878;2022-07-17T11:59:40;99823.00;;;35.30
68012;BMP180;54794;48.348;7.878;2022-07-17T12:02:30;99787.00;;;35.20
68012;BMP180;54794;48.348;7.878;2022-07-17T12:14:18;99775.00;;;35.70
68012;BMP180;54794;48.348;7.878;2022-07-17T12:18:06;99798.00;;;35.70
68012;BMP180;54794;48.348;7.878;2022-07-17T12:21:29;99785.00;;;35.80
68012;BMP180;54794;48.348;7.878;2022-07-17T12:24:06;99827.00;;;36.00
68012;BMP180;54794;48.348;7.878;2022-07-17T12:26:58;99833.00;;;36.00
68012;BMP180;54794;48.348;7.878;2022-07-17T12:29:26;99833.00;;;36.10
68012;BMP180;54794;48.348;7.878;2022-07-17T12:32:20;99833.00;;;36.10
68012;BMP180;54794;48.348;7.878;2022-07-17T12:34:48;99820.00;;;36.20
68012;BMP180;54794;48.348;7.878;2022-07-17T12:37:19;99829.00;;;36.20
68012;BMP180;54794;48.348;7.878;2022-07-17T12:39:49;99824.00;;;36.30
68012;BMP180;54794;48.348;7.878;2022-07-17T12:42:16;99826.00;;;36.40
68012;BMP180;54794;48.348;7.878;2022-07-17T12:44:44;99818.00;;;36.40
68012;BMP180;54794;48.348;7.878;2022-07-17T12:47:12;99836.00;;;36.50
68012;BMP180;54794;48.348;7.878;2022-07-17T12:49:38;99830.00;;;36.50
68012;BMP180;54794;48.348;7.878;2022-07-17T12:52:08;99826.00;;;36.60
68012;BMP180;54794;48.348;7.878;2022-07-17T12:54:35;99817.00;;;36.60
68012;BMP180;54794;48.348;7.878;2022-07-17T12:57:02;99809.00;;;36.60
68012;BMP180;54794;48.348;7.878;2022-07-17T12:59:29;99812.00;;;36.80
68012;BMP180;54794;48.348;7.878;2022-07-17T13:01:56;99820.00;;;36.80
68012;BMP180;54794;48.348;7.878;2022-07-17T13:04:23;99821.00;;;36.90
68012;BMP180;54794;48.348;7.878;2022-07-17T13:06:50;99824.00;;;37.00
68012;BMP180;54794;48.348;7.878;2022-07-17T13:09:17;99827.00;;;37.00
68012;BMP180;54794;48.348;7.878;2022-07-17T13:11:46;99818.00;;;37.10
68012;BMP180;54794;48.348;7.878;2022-07-17T13:14:13;99821.00;;;37.20
68012;BMP180;54794;48.348;7.878;2022-07-17T13:16:41;99822.00;;;37.20
68012;BMP180;54794;48.348;7.878;2022-07-17T13:19:08;99809.00;;;37.30
68012;BMP180;54794;48.348;7.878;2022-07-17T13:21:35;99806.00;;;37.30
68012;BMP180;54794;48.348;7.878;2022-07-17T13:24:02;99817.00;;;37.40
68012;BMP180;54794;48.348;7.878;2022-07-17T13:26:31;99811.00;;;37.40
68012;BMP180;54794;48.348;7.878;2022-07-17T13:28:58;99806.00;;;37.50
68012;BMP180;54794;48.348;7.878;2022-07-17T13:31:25;99804.00;;;37.50
68012;BMP180;54794;48.348;7.878;2022-07-17T13:33:52;99797.00;;;37.50
68012;BMP180;54794;48.348;7.878;2022-07-17T13:36:19;99795.00;;;37.60
68012;BMP180;54794;48.348;7.878;2022-07-17T13:38:46;99796.00;;;37.60
68012;BMP180;54794;48.348;7.878;2022-07-17T13:41:13;99791.00;;;37.60
68012;BMP180;54794;48.348;7.878;2022-07-17T13:43:40;99801.00;;;37.70
68012;BMP180;54794;48.348;7.878;2022-07-17T13:46:07;99804.00;;;37.70
68012;BMP180;54794;48.348;7.878;2022-07-17T13:48:34;99796.00;;;37.80
68012;BMP180;54794;48.348;7.878;2022-07-17T13:51:01;99799.00;;;37.70
68012;BMP180;54794;48.348;7.878;2022-07-17T13:53:28;99793.00;;;37.80
68012;BMP180;54794;48.348;7.878;2022-07-17T13:55:56;99802.00;;;37.90
68012;BMP180;54794;48.348;7.878;2022-07-17T13:58:23;99802.00;;;37.80
68012;BMP180;54794;48.348;7.878;2022-07-17T14:00:50;99800.00;;;37.90
68012;BMP180;54794;48.348;7.878;2022-07-17T14:03:17;99801.00;;;38.00
68012;BMP180;54794;48.348;7.878;2022-07-17T14:05:44;99795.00;;;38.10
68012;BMP180;54794;48.348;7.878;2022-07-17T14:08:11;99799.00;;;38.10
68012;BMP180;54794;48.348;7.878;2022-07-17T14:10:38;99794.00;;;38.10
68012;BMP180;54794;48.348;7.878;2022-07-17T14:13:05;99791.00;;;38.10
68012;BMP180;54794;48.348;7.878;2022-07-17T14:15:32;99785.00;;;38.10
68012;BMP180;54794;48.348;7.878;2022-07-17T14:17:59;99795.00;;;38.10
68012;BMP180;54794;48.348;7.878;2022-07-17T14:20:26;99794.00;;;38.10
68012;BMP180;54794;48.348;7.878;2022-07-17T14:22:53;99781.00;;;38.10
68012;BMP180;54794;48.348;7.878;2022-07-17T14:25:20;99784.00;;;38.10
68012;BMP180;54794;48.348;7.878;2022-07-17T14:27:47;99783.00;;;38.10
68012;BMP180;54794;48.348;7.878;2022-07-17T14:30:14;99776.00;;;38.00
68012;BMP180;54794;48.348;7.878;2022-07-17T14:32:41;99771.00;;;38.00
68012;BMP180;54794;48.348;7.878;2022-07-17T14:35:08;99775.00;;;38.00
68012;BMP180;54794;48.348;7.878;2022-07-17T14:37:35;99780.00;;;37.90
68012;BMP180;54794;48.348;7.878;2022-07-17T14:40:11;99781.00;;;37.90
68012;BMP180;54794;48.348;7.878;2022-07-17T14:42:38;99785.00;;;37.90
68012;BMP180;54794;48.348;7.878;2022-07-17T14:45:07;99774.00;;;37.90
68012;BMP180;54794;48.348;7.878;2022-07-17T14:47:34;99773.00;;;37.90
68012;BMP180;54794;48.348;7.878;2022-07-17T14:50:02;99775.00;;;37.90
68012;BMP180;54794;48.348;7.878;2022-07-17T14:52:29;99776.00;;;37.90
68012;BMP180;54794;48.348;7.878;2022-07-17T14:54:56;99782.00;;;37.80
68012;BMP180;54794;48.348;7.878;2022-07-17T14:57:23;99785.00;;;37.90
68012;BMP180;54794;48.348;7.878;2022-07-17T14:59:50;99768.00;;;37.80
68012;BMP180;54794;48.348;7.878;2022-07-17T15:02:17;99771.00;;;37.90
68012;BMP180;54794;48.348;7.878;2022-07-17T15:04:45;99770.00;;;37.90
68012;BMP180;54794;48.348;7.878;2022-07-17T15:07:12;99767.00;;;38.00
68012;BMP180;54794;48.348;7.878;2022-07-17T15:09:39;99773.00;;;38.00
68012;BMP180;54794;48.348;7.878;2022-07-17T15:12:06;99760.00;;;38.00
68012;BMP180;54794;48.348;7.878;2022-07-17T15:14:33;99765.00;;;38.00
68012;BMP180;54794;48.348;7.878;2022-07-17T15:17:00;99762.00;;;38.00
68012;BMP180;54794;48.348;7.878;2022-07-17T15:19:27;99758.00;;;38.00
68012;BMP180;54794;48.348;7.878;2022-07-17T15:21:53;99748.00;;;38.00
68012;BMP180;54794;48.348;7.878;2022-07-17T15:24:21;99768.00;;;38.00
68012;BMP180;54794;48.348;7.878;2022-07-17T15:26:48;99766.00;;;38.00
68012;BMP180;54794;48.348;7.878;2022-07-17T15:29:16;99762.00;;;38.00
68012;BMP180;54794;48.348;7.878;2022-07-17T15:31:44;99751.00;;;38.00
68012;BMP180;54794;48.348;7.878;2022-07-17T15:34:12;99756.00;;;37.90
68012;BMP180;54794;48.348;7.878;2022-07-17T15:36:39;99754.00;;;37.90
68012;BMP180;54794;48.348;7.878;2022-07-17T15:39:06;99762.00;;;37.90
68012;BMP180;54794;48.348;7.878;2022-07-17T15:41:34;99758.00;;;37.80
68012;BMP180;54794;48.348;7.878;2022-07-17T15:44:02;99753.00;;;37.80
68012;BMP180;54794;48.348;7.878;2022-07-17T15:46:29;99754.00;;;37.80
68012;BMP180;54794;48.348;7.878;2022-07-17T15:48:58;99749.00;;;37.80
68012;BMP180;54794;48.348;7.878;2022-07-17T15:51:26;99749.00;;;37.80
68012;BMP180;54794;48.348;7.878;2022-07-17T15:53:53;99755.00;;;37.80